KBTL/BTL METAR and TAF weather

Enter ICAO airport designator
Station Type Date Time Source
KBTL METAR 2022/09/26 09:53 UTC NOAA

KBTL 260953Z AUTO 25009KT 10SM FEW025 SCT060 11/09 A2968 RMK AO2 SLP050 T01060089 $


Station Type Date Time Source
KBTL Decoded METAR 2022/09/26 09:53 UTC NOAA

W.K.KELLOGG REGIONAL AIRPORT, MI, United States (KBTL) 42-18N 085-15W 290M
Sep 26, 2022 - 05:53 AM EDT / 2022.09.26 0953 UTC
Wind: from the WSW (250 degrees) at 10 MPH (9 KT):0
Visibility: 10 mile(s):0
Sky conditions: partly cloudy
Temperature: 51.1 F (10.6 C)
Dew Point: 48.0 F (8.9 C)
Relative Humidity: 89%
Pressure (altimeter): 29.68 in. Hg (1005 hPa)
ob: KBTL 260953Z AUTO 25009KT 10SM FEW025 SCT060 11/09 A2968 RMK AO2 SLP050 T01060089
cycle: 10

Station Type Date Time Source
KBTL TAF 2022/09/26 06:48 UTC NOAA

TAF KBTL 260547Z 2606/2706 25008KT P6SM SKC
FM261300 30014G30KT P6SM -SHRA BKN025

Example: see airport list